sensor_id;sensor_type;location;lat;lon;timestamp;temperature;humidity
72128;DHT22;60000;51.030;7.024;2024-03-29T00:01:28;8.59;65.65
72128;DHT22;60000;51.030;7.024;2024-03-29T00:03:53;8.59;65.62
72128;DHT22;60000;51.030;7.024;2024-03-29T00:06:19;8.57;65.72
72128;DHT22;60000;51.030;7.024;2024-03-29T00:08:44;8.56;65.66
72128;DHT22;60000;51.030;7.024;2024-03-29T00:11:10;8.49;65.84
72128;DHT22;60000;51.030;7.024;2024-03-29T00:13:35;8.43;66.07
72128;DHT22;60000;51.030;7.024;2024-03-29T00:16:00;8.33;66.16
72128;DHT22;60000;51.030;7.024;2024-03-29T00:18:26;8.31;66.42
72128;DHT22;60000;51.030;7.024;2024-03-29T00:20:51;8.19;66.60
72128;DHT22;60000;51.030;7.024;2024-03-29T00:23:16;8.12;66.83
72128;DHT22;60000;51.030;7.024;2024-03-29T00:25:43;8.06;66.91
72128;DHT22;60000;51.030;7.024;2024-03-29T00:28:08;8.01;67.07
72128;DHT22;60000;51.030;7.024;2024-03-29T00:30:33;7.92;67.36
72128;DHT22;60000;51.030;7.024;2024-03-29T00:32:59;7.88;67.52
72128;DHT22;60000;51.030;7.024;2024-03-29T00:35:24;7.85;67.54
72128;DHT22;60000;51.030;7.024;2024-03-29T00:37:50;7.85;67.66
72128;DHT22;60000;51.030;7.024;2024-03-29T00:40:16;7.82;67.82
72128;DHT22;60000;51.030;7.024;2024-03-29T00:42:41;7.84;67.96
72128;DHT22;60000;51.030;7.024;2024-03-29T00:45:07;7.87;67.94
72128;DHT22;60000;51.030;7.024;2024-03-29T00:47:32;7.84;67.93
72128;DHT22;60000;51.030;7.024;2024-03-29T00:49:58;7.87;67.90
72128;DHT22;60000;51.030;7.024;2024-03-29T00:52:23;7.88;67.89
72128;DHT22;60000;51.030;7.024;2024-03-29T00:54:48;7.88;67.89
72128;DHT22;60000;51.030;7.024;2024-03-29T00:57:15;7.92;67.83
72128;DHT22;60000;51.030;7.024;2024-03-29T00:59:40;7.91;67.86
72128;DHT22;60000;51.030;7.024;2024-03-29T01:02:08;7.99;67.63
72128;DHT22;60000;51.030;7.024;2024-03-29T01:04:34;8.01;67.56
72128;DHT22;60000;51.030;7.024;2024-03-29T01:06:59;8.03;67.48
72128;DHT22;60000;51.030;7.024;2024-03-29T01:09:25;8.03;67.52
72128;DHT22;60000;51.030;7.024;2024-03-29T01:11:51;8.08;67.33
72128;DHT22;60000;51.030;7.024;2024-03-29T01:14:16;8.11;67.32
72128;DHT22;60000;51.030;7.024;2024-03-29T01:16:41;8.21;66.87
72128;DHT22;60000;51.030;7.024;2024-03-29T01:19:07;8.25;66.90
72128;DHT22;60000;51.030;7.024;2024-03-29T01:21:35;8.26;66.71
72128;DHT22;60000;51.030;7.024;2024-03-29T01:24:00;8.33;66.27
72128;DHT22;60000;51.030;7.024;2024-03-29T01:26:26;8.43;65.92
72128;DHT22;60000;51.030;7.024;2024-03-29T01:28:51;8.45;65.82
72128;DHT22;60000;51.030;7.024;2024-03-29T01:31:16;8.49;65.66
72128;DHT22;60000;51.030;7.024;2024-03-29T01:33:41;8.49;65.68
72128;DHT22;60000;51.030;7.024;2024-03-29T01:36:07;8.50;65.69
72128;DHT22;60000;51.030;7.024;2024-03-29T01:38:33;8.53;65.64
72128;DHT22;60000;51.030;7.024;2024-03-29T01:40:59;8.50;65.70
72128;DHT22;60000;51.030;7.024;2024-03-29T01:43:25;8.57;65.35
72128;DHT22;60000;51.030;7.024;2024-03-29T01:45:54;8.60;65.11
72128;DHT22;60000;51.030;7.024;2024-03-29T01:48:24;8.64;65.03
72128;DHT22;60000;51.030;7.024;2024-03-29T01:50:50;8.62;65.07
72128;DHT22;60000;51.030;7.024;2024-03-29T01:53:18;8.64;65.20
72128;DHT22;60000;51.030;7.024;2024-03-29T01:55:43;8.60;65.43
72128;DHT22;60000;51.030;7.024;2024-03-29T01:58:09;8.62;65.47
72128;DHT22;60000;51.030;7.024;2024-03-29T02:00:43;8.62;65.35
72128;DHT22;60000;51.030;7.024;2024-03-29T02:03:09;8.62;65.43
72128;DHT22;60000;51.030;7.024;2024-03-29T02:05:39;8.60;65.44
72128;DHT22;60000;51.030;7.024;2024-03-29T02:08:06;8.70;65.09
72128;DHT22;60000;51.030;7.024;2024-03-29T02:10:32;8.69;65.29
72128;DHT22;60000;51.030;7.024;2024-03-29T02:12:57;8.76;64.99
72128;DHT22;60000;51.030;7.024;2024-03-29T02:15:22;8.80;64.80
72128;DHT22;60000;51.030;7.024;2024-03-29T02:17:48;8.76;64.87
72128;DHT22;60000;51.030;7.024;2024-03-29T02:20:13;8.80;64.85
72128;DHT22;60000;51.030;7.024;2024-03-29T02:22:44;8.80;64.99
72128;DHT22;60000;51.030;7.024;2024-03-29T02:25:11;8.76;65.12
72128;DHT22;60000;51.030;7.024;2024-03-29T02:27:37;8.80;64.93
72128;DHT22;60000;51.030;7.024;2024-03-29T02:30:03;8.83;65.03
72128;DHT22;60000;51.030;7.024;2024-03-29T02:32:29;8.88;64.94
72128;DHT22;60000;51.030;7.024;2024-03-29T02:34:54;8.87;65.14
72128;DHT22;60000;51.030;7.024;2024-03-29T02:37:19;8.83;65.37
72128;DHT22;60000;51.030;7.024;2024-03-29T02:39:45;8.87;65.39
72128;DHT22;60000;51.030;7.024;2024-03-29T02:42:10;8.88;65.50
72128;DHT22;60000;51.030;7.024;2024-03-29T02:44:35;8.92;65.49
72128;DHT22;60000;51.030;7.024;2024-03-29T02:47:01;8.92;65.69
72128;DHT22;60000;51.030;7.024;2024-03-29T02:49:26;8.96;65.39
72128;DHT22;60000;51.030;7.024;2024-03-29T02:51:51;9.07;64.92
72128;DHT22;60000;51.030;7.024;2024-03-29T02:54:18;9.08;64.72
72128;DHT22;60000;51.030;7.024;2024-03-29T02:56:43;9.07;64.86
72128;DHT22;60000;51.030;7.024;2024-03-29T02:59:10;9.15;64.18
72128;DHT22;60000;51.030;7.024;2024-03-29T03:01:35;9.17;64.08
72128;DHT22;60000;51.030;7.024;2024-03-29T03:04:00;9.20;63.78
72128;DHT22;60000;51.030;7.024;2024-03-29T03:06:26;9.24;63.49
72128;DHT22;60000;51.030;7.024;2024-03-29T03:08:51;9.24;63.59
72128;DHT22;60000;51.030;7.024;2024-03-29T03:11:35;9.24;63.62
72128;DHT22;60000;51.030;7.024;2024-03-29T03:14:00;9.22;63.64
72128;DHT22;60000;51.030;7.024;2024-03-29T03:16:25;9.22;63.51
72128;DHT22;60000;51.030;7.024;2024-03-29T03:18:51;9.21;63.49
72128;DHT22;60000;51.030;7.024;2024-03-29T03:21:16;9.21;63.33
72128;DHT22;60000;51.030;7.024;2024-03-29T03:23:41;9.20;63.48
72128;DHT22;60000;51.030;7.024;2024-03-29T03:26:07;9.15;63.57
72128;DHT22;60000;51.030;7.024;2024-03-29T03:28:32;9.12;63.65
72128;DHT22;60000;51.030;7.024;2024-03-29T03:30:57;9.12;63.85
72128;DHT22;60000;51.030;7.024;2024-03-29T03:33:23;9.12;63.74
72128;DHT22;60000;51.030;7.024;2024-03-29T03:35:48;9.14;63.57
72128;DHT22;60000;51.030;7.024;2024-03-29T03:38:14;9.11;63.73
72128;DHT22;60000;51.030;7.024;2024-03-29T03:40:40;9.12;63.66
72128;DHT22;60000;51.030;7.024;2024-03-29T03:43:06;9.18;63.37
72128;DHT22;60000;51.030;7.024;2024-03-29T03:48:05;9.20;63.07
72128;DHT22;60000;51.030;7.024;2024-03-29T03:50:31;9.18;63.19
72128;DHT22;60000;51.030;7.024;2024-03-29T03:52:57;9.20;63.15
72128;DHT22;60000;51.030;7.024;2024-03-29T03:55:22;9.18;63.25
72128;DHT22;60000;51.030;7.024;2024-03-29T03:57:48;9.22;62.92
72128;DHT22;60000;51.030;7.024;2024-03-29T04:00:13;9.34;62.51
72128;DHT22;60000;51.030;7.024;2024-03-29T04:02:39;9.31;62.66
72128;DHT22;60000;51.030;7.024;2024-03-29T04:05:04;9.30;62.73
72128;DHT22;60000;51.030;7.024;2024-03-29T04:07:30;9.28;62.79
72128;DHT22;60000;51.030;7.024;2024-03-29T04:09:55;9.28;62.75
72128;DHT22;60000;51.030;7.024;2024-03-29T04:12:20;9.25;63.16
72128;DHT22;60000;51.030;7.024;2024-03-29T04:14:46;9.27;62.89
72128;DHT22;60000;51.030;7.024;2024-03-29T04:17:11;9.27;62.82
72128;DHT22;60000;51.030;7.024;2024-03-29T04:19:37;9.28;63.07
72128;DHT22;60000;51.030;7.024;2024-03-29T04:22:02;9.36;62.85
72128;DHT22;60000;51.030;7.024;2024-03-29T04:24:28;9.32;63.18
72128;DHT22;60000;51.030;7.024;2024-03-29T04:26:53;9.31;63.42
72128;DHT22;60000;51.030;7.024;2024-03-29T04:29:18;9.24;63.81
72128;DHT22;60000;51.030;7.024;2024-03-29T04:31:47;9.22;64.16
72128;DHT22;60000;51.030;7.024;2024-03-29T04:34:12;9.20;64.77
72128;DHT22;60000;51.030;7.024;2024-03-29T04:36:37;9.17;65.30
72128;DHT22;60000;51.030;7.024;2024-03-29T04:39:03;9.14;65.65
72128;DHT22;60000;51.030;7.024;2024-03-29T04:41:29;9.10;66.19
72128;DHT22;60000;51.030;7.024;2024-03-29T04:43:59;9.10;66.55
72128;DHT22;60000;51.030;7.024;2024-03-29T04:46:24;9.04;67.13
72128;DHT22;60000;51.030;7.024;2024-03-29T04:48:50;9.01;67.42
72128;DHT22;60000;51.030;7.024;2024-03-29T04:51:15;8.92;67.60
72128;DHT22;60000;51.030;7.024;2024-03-29T04:53:41;8.88;68.16
72128;DHT22;60000;51.030;7.024;2024-03-29T04:56:06;8.88;68.71
72128;DHT22;60000;51.030;7.024;2024-03-29T04:58:31;8.80;69.26
72128;DHT22;60000;51.030;7.024;2024-03-29T05:00:57;8.74;70.02
72128;DHT22;60000;51.030;7.024;2024-03-29T05:03:23;8.70;70.64
72128;DHT22;60000;51.030;7.024;2024-03-29T05:05:50;8.67;71.09
72128;DHT22;60000;51.030;7.024;2024-03-29T05:08:15;8.59;72.09
72128;DHT22;60000;51.030;7.024;2024-03-29T05:10:40;8.54;72.72
72128;DHT22;60000;51.030;7.024;2024-03-29T05:13:06;8.49;73.33
72128;DHT22;60000;51.030;7.024;2024-03-29T05:15:32;8.46;73.94
72128;DHT22;60000;51.030;7.024;2024-03-29T05:17:57;8.42;74.29
72128;DHT22;60000;51.030;7.024;2024-03-29T05:20:23;8.36;74.86
72128;DHT22;60000;51.030;7.024;2024-03-29T05:22:48;8.32;75.37
72128;DHT22;60000;51.030;7.024;2024-03-29T05:25:13;8.31;75.59
72128;DHT22;60000;51.030;7.024;2024-03-29T05:27:39;8.26;76.13
72128;DHT22;60000;51.030;7.024;2024-03-29T05:30:05;8.25;76.55
72128;DHT22;60000;51.030;7.024;2024-03-29T05:32:30;8.21;77.05
72128;DHT22;60000;51.030;7.024;2024-03-29T05:34:56;8.19;77.46
72128;DHT22;60000;51.030;7.024;2024-03-29T05:37:21;8.16;77.41
72128;DHT22;60000;51.030;7.024;2024-03-29T05:39:48;8.11;77.85
72128;DHT22;60000;51.030;7.024;2024-03-29T05:42:13;8.08;77.96
72128;DHT22;60000;51.030;7.024;2024-03-29T05:44:38;8.09;78.11
72128;DHT22;60000;51.030;7.024;2024-03-29T05:47:04;8.05;78.33
72128;DHT22;60000;51.030;7.024;2024-03-29T05:49:32;8.05;78.26
72128;DHT22;60000;51.030;7.024;2024-03-29T05:51:58;8.05;78.50
72128;DHT22;60000;51.030;7.024;2024-03-29T05:54:23;8.03;78.62
72128;DHT22;60000;51.030;7.024;2024-03-29T05:56:49;8.06;78.90
72128;DHT22;60000;51.030;7.024;2024-03-29T05:59:15;8.09;78.82
72128;DHT22;60000;51.030;7.024;2024-03-29T06:01:40;8.09;78.79
72128;DHT22;60000;51.030;7.024;2024-03-29T06:04:05;8.13;78.96
72128;DHT22;60000;51.030;7.024;2024-03-29T06:06:39;8.15;79.11
72128;DHT22;60000;51.030;7.024;2024-03-29T06:09:04;8.15;79.23
72128;DHT22;60000;51.030;7.024;2024-03-29T06:11:29;8.12;79.36
72128;DHT22;60000;51.030;7.024;2024-03-29T06:13:55;8.22;79.59
72128;DHT22;60000;51.030;7.024;2024-03-29T06:16:27;8.26;79.75
72128;DHT22;60000;51.030;7.024;2024-03-29T06:19:28;8.26;79.89
72128;DHT22;60000;51.030;7.024;2024-03-29T06:21:54;8.28;79.97
72128;DHT22;60000;51.030;7.024;2024-03-29T06:24:19;8.31;80.16
72128;DHT22;60000;51.030;7.024;2024-03-29T06:26:45;8.29;80.29
72128;DHT22;60000;51.030;7.024;2024-03-29T06:29:10;8.32;80.45
72128;DHT22;60000;51.030;7.024;2024-03-29T06:31:36;8.38;80.56
72128;DHT22;60000;51.030;7.024;2024-03-29T06:34:01;8.39;80.60
72128;DHT22;60000;51.030;7.024;2024-03-29T06:36:27;8.48;80.59
72128;DHT22;60000;51.030;7.024;2024-03-29T06:38:55;8.50;80.74
72128;DHT22;60000;51.030;7.024;2024-03-29T06:41:21;8.56;80.87
72128;DHT22;60000;51.030;7.024;2024-03-29T06:43:46;8.62;80.93
72128;DHT22;60000;51.030;7.024;2024-03-29T06:46:12;8.67;80.91
72128;DHT22;60000;51.030;7.024;2024-03-29T06:48:37;8.69;80.79
72128;DHT22;60000;51.030;7.024;2024-03-29T06:51:03;8.79;80.61
72128;DHT22;60000;51.030;7.024;2024-03-29T06:53:29;8.81;80.68
72128;DHT22;60000;51.030;7.024;2024-03-29T06:55:55;8.88;80.64
72128;DHT22;60000;51.030;7.024;2024-03-29T06:58:22;8.92;80.55
72128;DHT22;60000;51.030;7.024;2024-03-29T07:00:47;8.97;80.59
72128;DHT22;60000;51.030;7.024;2024-03-29T07:03:14;9.07;80.58
72128;DHT22;60000;51.030;7.024;2024-03-29T07:05:40;9.18;80.09
72128;DHT22;60000;51.030;7.024;2024-03-29T07:08:06;9.28;80.03
72128;DHT22;60000;51.030;7.024;2024-03-29T07:10:31;9.30;80.04
72128;DHT22;60000;51.030;7.024;2024-03-29T07:12:57;9.35;80.02
72128;DHT22;60000;51.030;7.024;2024-03-29T07:15:22;9.45;79.57
72128;DHT22;60000;51.030;7.024;2024-03-29T07:17:48;9.52;79.58
72128;DHT22;60000;51.030;7.024;2024-03-29T07:20:16;9.58;79.33
72128;DHT22;60000;51.030;7.024;2024-03-29T07:22:41;9.58;79.62
72128;DHT22;60000;51.030;7.024;2024-03-29T07:25:07;9.69;79.48
72128;DHT22;60000;51.030;7.024;2024-03-29T07:27:32;9.79;79.32
72128;DHT22;60000;51.030;7.024;2024-03-29T07:30:02;9.86;79.35
72128;DHT22;60000;51.030;7.024;2024-03-29T07:32:29;9.94;79.06
72128;DHT22;60000;51.030;7.024;2024-03-29T07:34:55;9.99;79.08
72128;DHT22;60000;51.030;7.024;2024-03-29T07:37:23;10.10;78.81
72128;DHT22;60000;51.030;7.024;2024-03-29T07:39:48;10.10;78.86
72128;DHT22;60000;51.030;7.024;2024-03-29T07:42:14;10.20;78.79
72128;DHT22;60000;51.030;7.024;2024-03-29T07:44:39;10.22;78.87
72128;DHT22;60000;51.030;7.024;2024-03-29T07:47:04;10.30;78.73
72128;DHT22;60000;51.030;7.024;2024-03-29T07:49:30;10.37;78.74
72128;DHT22;60000;51.030;7.024;2024-03-29T07:51:55;10.41;78.58
72128;DHT22;60000;51.030;7.024;2024-03-29T07:54:20;10.42;78.60
72128;DHT22;60000;51.030;7.024;2024-03-29T07:56:45;10.51;78.33
72128;DHT22;60000;51.030;7.024;2024-03-29T07:59:11;10.64;78.00
72128;DHT22;60000;51.030;7.024;2024-03-29T08:01:36;10.69;77.83
72128;DHT22;60000;51.030;7.024;2024-03-29T08:04:01;10.71;77.81
72128;DHT22;60000;51.030;7.024;2024-03-29T08:06:27;10.75;77.75
72128;DHT22;60000;51.030;7.024;2024-03-29T08:08:53;10.75;77.85
72128;DHT22;60000;51.030;7.024;2024-03-29T08:11:18;10.78;78.19
72128;DHT22;60000;51.030;7.024;2024-03-29T08:13:44;10.79;78.25
72128;DHT22;60000;51.030;7.024;2024-03-29T08:16:09;10.83;78.20
72128;DHT22;60000;51.030;7.024;2024-03-29T08:18:36;10.89;77.85
72128;DHT22;60000;51.030;7.024;2024-03-29T08:21:02;10.91;77.99
72128;DHT22;60000;51.030;7.024;2024-03-29T08:23:28;10.96;77.96
72128;DHT22;60000;51.030;7.024;2024-03-29T08:25:54;10.98;78.02
72128;DHT22;60000;51.030;7.024;2024-03-29T08:28:22;10.98;78.08
72128;DHT22;60000;51.030;7.024;2024-03-29T08:30:58;11.02;77.98
72128;DHT22;60000;51.030;7.024;2024-03-29T08:33:23;11.10;77.67
72128;DHT22;60000;51.030;7.024;2024-03-29T08:35:49;11.13;77.75
72128;DHT22;60000;51.030;7.024;2024-03-29T08:38:15;11.24;77.56
72128;DHT22;60000;51.030;7.024;2024-03-29T08:40:41;11.26;77.23
72128;DHT22;60000;51.030;7.024;2024-03-29T08:43:08;11.36;77.06
72128;DHT22;60000;51.030;7.024;2024-03-29T08:45:34;11.41;76.93
72128;DHT22;60000;51.030;7.024;2024-03-29T08:47:59;11.47;77.03
72128;DHT22;60000;51.030;7.024;2024-03-29T08:50:24;11.60;76.68
72128;DHT22;60000;51.030;7.024;2024-03-29T08:52:50;11.67;76.50
72128;DHT22;60000;51.030;7.024;2024-03-29T08:55:17;11.81;75.79
72128;DHT22;60000;51.030;7.024;2024-03-29T08:57:42;11.88;75.99
72128;DHT22;60000;51.030;7.024;2024-03-29T09:00:08;11.95;76.31
72128;DHT22;60000;51.030;7.024;2024-03-29T09:02:33;12.08;75.92
72128;DHT22;60000;51.030;7.024;2024-03-29T09:04:59;12.22;75.17
72128;DHT22;60000;51.030;7.024;2024-03-29T09:07:24;12.33;74.68
72128;DHT22;60000;51.030;7.024;2024-03-29T09:09:50;12.39;74.71
72128;DHT22;60000;51.030;7.024;2024-03-29T09:12:15;12.49;73.93
72128;DHT22;60000;51.030;7.024;2024-03-29T09:14:41;12.53;74.13
72128;DHT22;60000;51.030;7.024;2024-03-29T09:17:06;12.63;73.35
72128;DHT22;60000;51.030;7.024;2024-03-29T09:19:32;12.68;72.87
72128;DHT22;60000;51.030;7.024;2024-03-29T09:21:58;12.77;72.76
72128;DHT22;60000;51.030;7.024;2024-03-29T09:24:23;12.88;72.78
72128;DHT22;60000;51.030;7.024;2024-03-29T09:26:51;12.93;72.68
72128;DHT22;60000;51.030;7.024;2024-03-29T09:29:16;13.07;71.78
72128;DHT22;60000;51.030;7.024;2024-03-29T09:31:47;13.11;72.03
72128;DHT22;60000;51.030;7.024;2024-03-29T09:34:30;13.18;71.53
72128;DHT22;60000;51.030;7.024;2024-03-29T09:37:33;13.25;71.26
72128;DHT22;60000;51.030;7.024;2024-03-29T09:40:14;13.34;71.15
72128;DHT22;60000;51.030;7.024;2024-03-29T09:45:25;13.48;71.71
72128;DHT22;60000;51.030;7.024;2024-03-29T09:50:37;13.58;70.87
72128;DHT22;60000;51.030;7.024;2024-03-29T09:53:08;13.66;70.29
72128;DHT22;60000;51.030;7.024;2024-03-29T09:55:36;13.76;70.30
72128;DHT22;60000;51.030;7.024;2024-03-29T09:58:05;13.82;69.72
72128;DHT22;60000;51.030;7.024;2024-03-29T10:00:34;13.91;69.80
72128;DHT22;60000;51.030;7.024;2024-03-29T10:03:03;14.00;68.94
72128;DHT22;60000;51.030;7.024;2024-03-29T10:05:50;14.06;69.28
72128;DHT22;60000;51.030;7.024;2024-03-29T10:08:17;14.07;68.55
72128;DHT22;60000;51.030;7.024;2024-03-29T10:18:17;14.28;68.94
72128;DHT22;60000;51.030;7.024;2024-03-29T10:20:57;14.31;67.81
72128;DHT22;60000;51.030;7.024;2024-03-29T10:23:36;14.38;68.51
72128;DHT22;60000;51.030;7.024;2024-03-29T10:26:02;14.44;67.45
72128;DHT22;60000;51.030;7.024;2024-03-29T10:28:32;14.45;68.13
72128;DHT22;60000;51.030;7.024;2024-03-29T10:31:05;14.49;68.13
72128;DHT22;60000;51.030;7.024;2024-03-29T10:33:31;14.54;68.77
72128;DHT22;60000;51.030;7.024;2024-03-29T10:36:00;14.58;67.91
72128;DHT22;60000;51.030;7.024;2024-03-29T10:38:29;14.61;67.16
72128;DHT22;60000;51.030;7.024;2024-03-29T10:41:03;14.64;66.78
72128;DHT22;60000;51.030;7.024;2024-03-29T10:43:44;14.55;67.31
72128;DHT22;60000;51.030;7.024;2024-03-29T10:46:23;14.58;66.87
72128;DHT22;60000;51.030;7.024;2024-03-29T10:49:09;14.52;67.67
72128;DHT22;60000;51.030;7.024;2024-03-29T10:52:10;14.58;67.50
72128;DHT22;60000;51.030;7.024;2024-03-29T10:54:50;14.55;67.59
72128;DHT22;60000;51.030;7.024;2024-03-29T10:57:22;14.54;68.05
72128;DHT22;60000;51.030;7.024;2024-03-29T11:06:20;14.83;67.00
72128;DHT22;60000;51.030;7.024;2024-03-29T11:08:54;14.86;66.52
72128;DHT22;60000;51.030;7.024;2024-03-29T11:12:04;14.95;65.87
72128;DHT22;60000;51.030;7.024;2024-03-29T11:15:19;15.04;64.32
72128;DHT22;60000;51.030;7.024;2024-03-29T11:21:46;15.27;62.89
72128;DHT22;60000;51.030;7.024;2024-03-29T11:24:54;15.36;62.71
72128;DHT22;60000;51.030;7.024;2024-03-29T11:28:25;15.36;62.55
72128;DHT22;60000;51.030;7.024;2024-03-29T11:34:33;15.33;63.37
72128;DHT22;60000;51.030;7.024;2024-03-29T11:37:14;15.33;64.33
72128;DHT22;60000;51.030;7.024;2024-03-29T11:39:46;15.39;65.21
72128;DHT22;60000;51.030;7.024;2024-03-29T11:42:12;15.37;65.15
72128;DHT22;60000;51.030;7.024;2024-03-29T11:44:37;15.40;65.74
72128;DHT22;60000;51.030;7.024;2024-03-29T11:47:03;15.31;65.15
72128;DHT22;60000;51.030;7.024;2024-03-29T11:49:32;15.23;65.52
72128;DHT22;60000;51.030;7.024;2024-03-29T11:52:04;15.19;65.80
72128;DHT22;60000;51.030;7.024;2024-03-29T11:54:37;15.20;66.13
72128;DHT22;60000;51.030;7.024;2024-03-29T11:57:03;15.29;65.95
72128;DHT22;60000;51.030;7.024;2024-03-29T11:59:28;15.44;66.09
72128;DHT22;60000;51.030;7.024;2024-03-29T12:01:55;15.49;65.31
72128;DHT22;60000;51.030;7.024;2024-03-29T12:04:21;15.51;63.95
72128;DHT22;60000;51.030;7.024;2024-03-29T12:06:46;15.47;60.61
72128;DHT22;60000;51.030;7.024;2024-03-29T12:09:14;15.54;59.76
72128;DHT22;60000;51.030;7.024;2024-03-29T12:11:43;15.47;58.07
72128;DHT22;60000;51.030;7.024;2024-03-29T12:14:13;15.40;57.47
72128;DHT22;60000;51.030;7.024;2024-03-29T12:16:45;15.34;56.97
72128;DHT22;60000;51.030;7.024;2024-03-29T12:19:21;15.23;56.68
72128;DHT22;60000;51.030;7.024;2024-03-29T12:21:47;15.19;57.96
72128;DHT22;60000;51.030;7.024;2024-03-29T12:24:12;15.09;59.09
72128;DHT22;60000;51.030;7.024;2024-03-29T12:26:37;15.07;59.78
72128;DHT22;60000;51.030;7.024;2024-03-29T12:29:03;15.09;60.14
72128;DHT22;60000;51.030;7.024;2024-03-29T12:31:28;14.98;60.83
72128;DHT22;60000;51.030;7.024;2024-03-29T12:33:54;14.92;61.43
72128;DHT22;60000;51.030;7.024;2024-03-29T12:36:23;14.82;62.87
72128;DHT22;60000;51.030;7.024;2024-03-29T12:38:48;14.76;65.44
72128;DHT22;60000;51.030;7.024;2024-03-29T12:41:17;14.62;67.28
72128;DHT22;60000;51.030;7.024;2024-03-29T12:43:43;14.48;68.84
72128;DHT22;60000;51.030;7.024;2024-03-29T12:46:08;14.35;70.21
72128;DHT22;60000;51.030;7.024;2024-03-29T12:48:35;14.21;71.29
72128;DHT22;60000;51.030;7.024;2024-03-29T12:51:00;14.09;72.69
72128;DHT22;60000;51.030;7.024;2024-03-29T12:53:28;13.96;73.50
72128;DHT22;60000;51.030;7.024;2024-03-29T12:55:53;13.87;74.17
72128;DHT22;60000;51.030;7.024;2024-03-29T12:58:19;13.84;74.83
72128;DHT22;60000;51.030;7.024;2024-03-29T13:00:47;13.83;75.53
72128;DHT22;60000;51.030;7.024;2024-03-29T13:03:13;13.80;75.61
72128;DHT22;60000;51.030;7.024;2024-03-29T13:05:39;13.79;75.35
72128;DHT22;60000;51.030;7.024;2024-03-29T13:08:08;13.80;75.96
72128;DHT22;60000;51.030;7.024;2024-03-29T13:10:44;13.91;76.20
72128;DHT22;60000;51.030;7.024;2024-03-29T13:13:10;13.94;75.47
72128;DHT22;60000;51.030;7.024;2024-03-29T13:15:37;14.03;75.17
72128;DHT22;60000;51.030;7.024;2024-03-29T13:18:03;14.07;74.93
72128;DHT22;60000;51.030;7.024;2024-03-29T13:20:30;14.12;74.79
72128;DHT22;60000;51.030;7.024;2024-03-29T13:22:56;14.18;74.00
72128;DHT22;60000;51.030;7.024;2024-03-29T13:25:23;14.38;73.78
72128;DHT22;60000;51.030;7.024;2024-03-29T13:27:50;14.69;73.52
72128;DHT22;60000;51.030;7.024;2024-03-29T13:30:21;14.85;71.95
72128;DHT22;60000;51.030;7.024;2024-03-29T13:32:46;15.03;71.42
72128;DHT22;60000;51.030;7.024;2024-03-29T13:35:12;15.10;69.29
72128;DHT22;60000;51.030;7.024;2024-03-29T13:37:39;15.09;69.41
72128;DHT22;60000;51.030;7.024;2024-03-29T13:40:07;15.07;68.96
72128;DHT22;60000;51.030;7.024;2024-03-29T13:42:34;15.07;68.77
72128;DHT22;60000;51.030;7.024;2024-03-29T13:44:59;15.07;69.11
72128;DHT22;60000;51.030;7.024;2024-03-29T13:47:25;15.10;68.68
72128;DHT22;60000;51.030;7.024;2024-03-29T13:49:51;15.19;69.27
72128;DHT22;60000;51.030;7.024;2024-03-29T13:52:18;15.29;69.01
72128;DHT22;60000;51.030;7.024;2024-03-29T13:54:44;15.36;68.62
72128;DHT22;60000;51.030;7.024;2024-03-29T13:57:11;15.39;67.39
72128;DHT22;60000;51.030;7.024;2024-03-29T13:59:37;15.44;66.96
72128;DHT22;60000;51.030;7.024;2024-03-29T14:02:03;15.46;66.93
72128;DHT22;60000;51.030;7.024;2024-03-29T14:04:28;15.58;66.42
72128;DHT22;60000;51.030;7.024;2024-03-29T14:06:53;15.57;66.61
72128;DHT22;60000;51.030;7.024;2024-03-29T14:09:19;15.60;66.63
72128;DHT22;60000;51.030;7.024;2024-03-29T14:11:47;15.68;67.08
72128;DHT22;60000;51.030;7.024;2024-03-29T14:14:12;15.62;65.77
72128;DHT22;60000;51.030;7.024;2024-03-29T14:16:40;15.55;65.86
72128;DHT22;60000;51.030;7.024;2024-03-29T14:19:06;15.46;65.83
72128;DHT22;60000;51.030;7.024;2024-03-29T14:21:31;15.41;66.28
72128;DHT22;60000;51.030;7.024;2024-03-29T14:23:57;15.43;66.27
72128;DHT22;60000;51.030;7.024;2024-03-29T14:26:22;15.39;65.80
72128;DHT22;60000;51.030;7.024;2024-03-29T14:28:48;15.30;65.46
72128;DHT22;60000;51.030;7.024;2024-03-29T14:31:13;15.30;65.54
72128;DHT22;60000;51.030;7.024;2024-03-29T14:33:38;15.29;65.51
72128;DHT22;60000;51.030;7.024;2024-03-29T14:36:04;15.34;65.19
72128;DHT22;60000;51.030;7.024;2024-03-29T14:38:29;15.37;64.77
72128;DHT22;60000;51.030;7.024;2024-03-29T14:40:55;15.36;64.87
72128;DHT22;60000;51.030;7.024;2024-03-29T14:43:21;15.41;64.60
72128;DHT22;60000;51.030;7.024;2024-03-29T14:45:46;15.44;64.32
72128;DHT22;60000;51.030;7.024;2024-03-29T14:48:15;15.49;64.83
72128;DHT22;60000;51.030;7.024;2024-03-29T14:50:44;15.49;64.94
72128;DHT22;60000;51.030;7.024;2024-03-29T14:53:09;15.51;64.90
72128;DHT22;60000;51.030;7.024;2024-03-29T14:55:34;15.58;65.39
72128;DHT22;60000;51.030;7.024;2024-03-29T14:58:04;15.64;65.12
72128;DHT22;60000;51.030;7.024;2024-03-29T15:00:30;15.74;66.01
72128;DHT22;60000;51.030;7.024;2024-03-29T15:02:55;15.78;64.23
72128;DHT22;60000;51.030;7.024;2024-03-29T15:05:20;15.81;62.83
72128;DHT22;60000;51.030;7.024;2024-03-29T15:07:46;15.84;62.86
72128;DHT22;60000;51.030;7.024;2024-03-29T15:10:12;15.88;62.99
72128;DHT22;60000;51.030;7.024;2024-03-29T15:12:37;15.85;60.76
72128;DHT22;60000;51.030;7.024;2024-03-29T15:15:03;15.84;61.38
72128;DHT22;60000;51.030;7.024;2024-03-29T15:17:29;15.84;61.63
72128;DHT22;60000;51.030;7.024;2024-03-29T15:19:54;15.84;60.98
72128;DHT22;60000;51.030;7.024;2024-03-29T15:22:19;15.81;60.44
72128;DHT22;60000;51.030;7.024;2024-03-29T15:24:45;15.75;61.07
72128;DHT22;60000;51.030;7.024;2024-03-29T15:27:10;15.68;60.09
72128;DHT22;60000;51.030;7.024;2024-03-29T15:29:54;15.57;60.41
72128;DHT22;60000;51.030;7.024;2024-03-29T15:32:20;15.53;60.83
72128;DHT22;60000;51.030;7.024;2024-03-29T15:34:45;15.51;61.19
72128;DHT22;60000;51.030;7.024;2024-03-29T15:37:11;15.44;60.55
72128;DHT22;60000;51.030;7.024;2024-03-29T15:39:36;15.36;60.46
72128;DHT22;60000;51.030;7.024;2024-03-29T15:42:01;15.34;60.78
72128;DHT22;60000;51.030;7.024;2024-03-29T15:44:27;15.29;61.22
72128;DHT22;60000;51.030;7.024;2024-03-29T15:46:52;15.26;61.34
72128;DHT22;60000;51.030;7.024;2024-03-29T15:49:17;15.22;61.52
72128;DHT22;60000;51.030;7.024;2024-03-29T15:51:43;15.13;61.68
72128;DHT22;60000;51.030;7.024;2024-03-29T15:54:08;15.06;61.76
72128;DHT22;60000;51.030;7.024;2024-03-29T15:56:37;15.03;62.12
72128;DHT22;60000;51.030;7.024;2024-03-29T15:59:03;14.98;62.44
72128;DHT22;60000;51.030;7.024;2024-03-29T16:01:29;14.96;62.35
72128;DHT22;60000;51.030;7.024;2024-03-29T16:03:54;14.91;62.40
72128;DHT22;60000;51.030;7.024;2024-03-29T16:06:19;14.86;62.43
72128;DHT22;60000;51.030;7.024;2024-03-29T16:08:45;14.82;62.39